Time;durP1;ratioP1;P1;durP2;ratioP2;P2;SDS_P1;SDS_P2;PMS_P1;PMS_P2;Temp;Humidity;BMP_temperature;BMP_pressure;BME280_temperature;BME280_humidity;BME280_pressure;Samples;Min_cycle;Max_cycle;Signal;HPM_P1;HPM_P2
2023/07/21 00:01:14;;;;;;;5.90;2.80;;;;;;;;;;4989783;28;20074;-84
2023/07/21 00:03:41;;;;;;;;;;;;;;;;;;5005107;28;20133;-83
2023/07/21 00:06:07;;;;;;;7.13;3.22;;;;;;;;;;5006177;28;19975;-82
2023/07/21 00:08:34;;;;;;;8.02;3.25;;;;;;;;;;4989125;28;20046;-83
2023/07/21 00:11:01;;;;;;;4.63;2.60;;;;;;;;;;5006038;28;20058;-84
2023/07/21 00:13:27;;;;;;;5.07;2.85;;;;;;;;;;5005174;28;20054;-84
2023/07/21 00:15:54;;;;;;;5.93;2.88;;;;;;;;;;4969294;28;20407;-85
2023/07/21 00:18:20;;;;;;;5.60;2.33;;;;;;;;;;4971423;28;20049;-78
2023/07/21 00:20:47;;;;;;;6.40;2.40;;;;;;;;;;4975432;28;20152;-78
2023/07/21 00:23:13;;;;;;;6.10;2.63;;;;;;;;;;4973249;28;20058;-78
2023/07/21 00:25:39;;;;;;;5.60;2.75;;;;;;;;;;4972897;28;20555;-78
2023/07/21 00:28:05;;;;;;;7.38;3.22;;;;;;;;;;4972348;28;20081;-77
2023/07/21 00:30:32;;;;;;;5.35;2.70;;;;;;;;;;4961709;28;20130;-77
2023/07/21 00:32:59;;;;;;;4.85;2.50;;;;;;;;;;4991700;28;20093;-78
2023/07/21 00:35:26;;;;;;;5.30;2.60;;;;;;;;;;4992741;28;20106;-78
2023/07/21 00:37:52;;;;;;;8.07;2.72;;;;;;;;;;4987446;28;20045;-78
2023/07/21 00:40:23;;;;;;;5.68;2.47;;;;;;;;;;5005536;28;20410;-78
2023/07/21 00:42:49;;;;;;;7.00;2.60;;;;;;;;;;4971606;28;20183;-78
2023/07/21 00:45:15;;;;;;;8.60;2.55;;;;;;;;;;5005384;28;20046;-78
2023/07/21 00:47:41;;;;;;;;;;;;;;;;;;5004928;28;20054;-77
2023/07/21 00:50:08;;;;;;;4.47;2.35;;;;;;;;;;4987686;28;19925;-78
2023/07/21 00:52:35;;;;;;;5.75;2.53;;;;;;;;;;4986341;28;20065;-77
2023/07/21 00:55:01;;;;;;;4.72;2.35;;;;;;;;;;4989170;28;20054;-79
2023/07/21 00:57:28;;;;;;;5.43;2.70;;;;;;;;;;4972650;28;20159;-78
2023/07/21 00:59:54;;;;;;;4.88;2.90;;;;;;;;;;4971964;28;20071;-78
2023/07/21 01:02:21;;;;;;;6.47;3.10;;;;;;;;;;4972543;28;20082;-78
2023/07/21 01:04:47;;;;;;;7.80;2.90;;;;;;;;;;4971361;28;20038;-78
2023/07/21 01:07:15;;;;;;;7.05;2.75;;;;;;;;;;4974030;28;20049;-78
2023/07/21 01:09:41;;;;;;;8.63;3.17;;;;;;;;;;4972885;28;20051;-78
2023/07/21 01:12:07;;;;;;;7.32;2.78;;;;;;;;;;4988389;28;20046;-78
2023/07/21 01:14:35;;;;;;;6.45;2.72;;;;;;;;;;5004663;28;20179;-78
2023/07/21 01:17:02;;;;;;;5.65;2.50;;;;;;;;;;5004731;28;20046;-78
2023/07/21 01:19:31;;;;;;;5.38;2.10;;;;;;;;;;4987825;28;20050;-78
2023/07/21 01:22:04;;;;;;;8.38;2.83;;;;;;;;;;5017469;28;20088;-77
2023/07/21 01:24:33;;;;;;;4.97;2.60;;;;;;;;;;4991880;28;20138;-78
2023/07/21 01:26:59;;;;;;;4.22;2.45;;;;;;;;;;4988769;28;20057;-78
2023/07/21 01:29:26;;;;;;;6.32;2.50;;;;;;;;;;4978654;28;20058;-78
2023/07/21 01:31:53;;;;;;;4.88;2.80;;;;;;;;;;4988107;28;20115;-78
2023/07/21 01:34:20;;;;;;;6.18;2.92;;;;;;;;;;5072008;28;20103;-78
2023/07/21 01:36:46;;;;;;;7.03;2.72;;;;;;;;;;5058712;28;20091;-78
2023/07/21 01:39:12;;;;;;;;;;;;;;;;;;5076614;28;20050;-78
2023/07/21 01:41:38;;;;;;;5.15;2.90;;;;;;;;;;5076264;28;19928;-77
2023/07/21 01:44:04;;;;;;;5.80;2.83;;;;;;;;;;5075859;28;20049;-78
2023/07/21 01:46:30;;;;;;;;;;;;;;;;;;5024752;28;20387;-78
2023/07/21 01:48:56;;;;;;;7.22;2.83;;;;;;;;;;5020831;28;19932;-78
2023/07/21 01:51:22;;;;;;;;;;;;;;;;;;5009025;28;20491;-78
2023/07/21 01:53:54;;;;;;;4.95;3.00;;;;;;;;;;4991376;28;19970;-78
2023/07/21 01:56:28;;;;;;;7.95;3.13;;;;;;;;;;4988247;28;20050;-78
2023/07/21 01:58:56;;;;;;;6.07;3.08;;;;;;;;;;4970382;28;20049;-78
2023/07/21 02:01:23;;;;;;;6.60;3.28;;;;;;;;;;4989902;28;20133;-78
2023/07/21 02:03:49;;;;;;;8.38;3.28;;;;;;;;;;4989757;28;20046;-78
2023/07/21 02:06:16;;;;;;;7.15;3.13;;;;;;;;;;4991345;28;20053;-78
2023/07/21 02:08:42;;;;;;;5.70;3.10;;;;;;;;;;4990703;28;20045;-76
2023/07/21 02:11:08;;;;;;;;;;;;;;;;;;4991672;28;20045;-78
2023/07/21 02:13:34;;;;;;;5.45;3.00;;;;;;;;;;4973935;28;19928;-78
2023/07/21 02:16:00;;;;;;;6.63;3.40;;;;;;;;;;4990732;28;20110;-79
2023/07/21 02:18:26;;;;;;;9.43;3.20;;;;;;;;;;4979767;28;20050;-78
2023/07/21 02:20:52;;;;;;;6.68;3.53;;;;;;;;;;4992986;28;20049;-78
2023/07/21 02:23:18;;;;;;;;;;;;;;;;;;4991177;28;20437;-78
2023/07/21 02:25:44;;;;;;;6.18;2.53;;;;;;;;;;5023240;28;19922;-77
2023/07/21 02:28:10;;;;;;;4.57;2.50;;;;;;;;;;4990292;28;20042;-78
2023/07/21 02:30:36;;;;;;;6.57;2.65;;;;;;;;;;4990915;28;20150;-78
2023/07/21 02:33:02;;;;;;;4.43;2.80;;;;;;;;;;4981865;28;20076;-78
2023/07/21 02:35:29;;;;;;;5.30;2.70;;;;;;;;;;4987754;28;20538;-78
2023/07/21 02:37:57;;;;;;;6.05;3.05;;;;;;;;;;5003317;28;20107;-77
2023/07/21 02:40:23;;;;;;;6.82;3.10;;;;;;;;;;4988606;28;20058;-79
2023/07/21 02:42:49;;;;;;;6.32;3.10;;;;;;;;;;4988061;28;20145;-79
2023/07/21 02:45:15;;;;;;;7.80;3.85;;;;;;;;;;5002549;28;20102;-79
2023/07/21 02:47:41;;;;;;;8.65;3.97;;;;;;;;;;4970686;28;20099;-79
2023/07/21 02:50:07;;;;;;;;;;;;;;;;;;4970814;28;20050;-79
2023/07/21 02:52:33;;;;;;;7.25;3.70;;;;;;;;;;4981798;28;19983;-80
2023/07/21 02:54:59;;;;;;;8.00;3.85;;;;;;;;;;4989859;28;20049;-79
2023/07/21 02:57:25;;;;;;;7.63;3.20;;;;;;;;;;4990281;28;20049;-79
2023/07/21 02:59:52;;;;;;;8.25;3.35;;;;;;;;;;4973766;28;20487;-80
2023/07/21 03:02:19;;;;;;;8.07;3.92;;;;;;;;;;4989529;28;20046;-79
2023/07/21 03:04:45;;;;;;;6.88;3.33;;;;;;;;;;4972162;28;20390;-78
2023/07/21 03:07:11;;;;;;;7.60;3.40;;;;;;;;;;4982500;28;20042;-79
2023/07/21 03:09:37;;;;;;;;;;;;;;;;;;5003888;28;20045;-79
2023/07/21 03:12:04;;;;;;;7.70;3.70;;;;;;;;;;5007463;28;19925;-79
2023/07/21 03:14:30;;;;;;;6.90;3.38;;;;;;;;;;4992106;28;20133;-79
2023/07/21 03:16:56;;;;;;;6.47;3.53;;;;;;;;;;4977528;28;20062;-79
2023/07/21 03:19:22;;;;;;;8.35;3.35;;;;;;;;;;5005971;28;20054;-79
2023/07/21 03:21:49;;;;;;;6.20;3.33;;;;;;;;;;5006074;28;20191;-78
2023/07/21 03:24:16;;;;;;;9.43;3.75;;;;;;;;;;4990177;28;20062;-79
2023/07/21 03:26:42;;;;;;;;;;;;;;;;;;5007224;28;20042;-79
2023/07/21 03:29:08;;;;;;;6.32;3.08;;;;;;;;;;5005495;28;20470;-79
2023/07/21 03:31:34;;;;;;;7.72;3.38;;;;;;;;;;5006621;28;20050;-79
2023/07/21 03:34:00;;;;;;;;;;;;;;;;;;4942207;28;20567;-78
2023/07/21 03:36:26;;;;;;;6.20;3.47;;;;;;;;;;5006300;28;20012;-79
2023/07/21 03:38:52;;;;;;;7.68;3.50;;;;;;;;;;4973477;28;20042;-79
2023/07/21 03:41:18;;;;;;;7.20;3.17;;;;;;;;;;4989589;28;20078;-78
2023/07/21 03:43:44;;;;;;;6.82;3.30;;;;;;;;;;4989168;28;20049;-79
2023/07/21 03:46:10;;;;;;;6.82;3.65;;;;;;;;;;4989283;28;20046;-79
2023/07/21 03:48:36;;;;;;;5.78;3.35;;;;;;;;;;4989215;28;20101;-79
2023/07/21 03:51:02;;;;;;;;;;;;;;;;;;4973751;28;20123;-79
2023/07/21 03:53:29;;;;;;;8.27;3.35;;;;;;;;;;5006278;28;19929;-79
2023/07/21 03:55:55;;;;;;;7.97;3.38;;;;;;;;;;4973258;28;20046;-79
2023/07/21 03:58:21;;;;;;;6.53;3.58;;;;;;;;;;4973104;28;20081;-79
2023/07/21 04:00:47;;;;;;;5.65;3.30;;;;;;;;;;4977360;28;20392;-79
2023/07/21 04:03:14;;;;;;;7.78;3.30;;;;;;;;;;4991819;28;20049;-79
2023/07/21 04:05:40;;;;;;;6.88;3.38;;;;;;;;;;4991821;28;20046;-79
2023/07/21 04:08:07;;;;;;;6.20;3.90;;;;;;;;;;4992254;28;20080;-79
2023/07/21 04:10:33;;;;;;;8.73;4.07;;;;;;;;;;4992864;28;20092;-79
2023/07/21 04:12:59;;;;;;;9.32;4.38;;;;;;;;;;4975492;28;20052;-79
2023/07/21 04:15:25;;;;;;;;;;;;;;;;;;4977156;28;20054;-79
2023/07/21 04:17:52;;;;;;;12.02;3.90;;;;;;;;;;4991815;28;19928;-78
2023/07/21 04:20:18;;;;;;;10.80;4.32;;;;;;;;;;4976383;28;20153;-79
2023/07/21 04:22:44;;;;;;;5.85;3.70;;;;;;;;;;4975401;28;20053;-79
2023/07/21 04:25:11;;;;;;;;;;;;;;;;;;5008849;28;20057;-79
2023/07/21 04:27:37;;;;;;;7.63;4.20;;;;;;;;;;4990080;28;19926;-79
2023/07/21 04:30:03;;;;;;;9.15;4.40;;;;;;;;;;5005106;28;20048;-79
2023/07/21 04:32:30;;;;;;;14.45;5.13;;;;;;;;;;5005494;28;20515;-79
2023/07/21 04:34:57;;;;;;;7.90;4.55;;;;;;;;;;5003842;28;20469;-78
2023/07/21 04:37:23;;;;;;;7.93;4.30;;;;;;;;;;4992095;28;20076;-79
2023/07/21 04:39:49;;;;;;;8.00;4.63;;;;;;;;;;4992280;28;20054;-79
2023/07/21 04:42:15;;;;;;;;;;;;;;;;;;5004043;28;20058;-79
2023/07/21 04:44:43;;;;;;;9.60;4.55;;;;;;;;;;4988394;28;20317;-79
2023/07/21 04:47:09;;;;;;;9.73;4.32;;;;;;;;;;5016398;28;20050;-79
2023/07/21 04:49:35;;;;;;;7.25;4.75;;;;;;;;;;4972083;28;20137;-79
2023/07/21 04:52:04;;;;;;;9.05;4.50;;;;;;;;;;4967132;28;20138;-79
2023/07/21 04:54:30;;;;;;;10.75;4.75;;;;;;;;;;4988429;28;20046;-78
2023/07/21 04:56:56;;;;;;;;;;;;;;;;;;4988229;28;20046;-78
2023/07/21 04:59:22;;;;;;;7.32;4.15;;;;;;;;;;4988144;28;19921;-79
2023/07/21 05:01:48;;;;;;;9.82;4.63;;;;;;;;;;4988533;28;20051;-79
2023/07/21 05:04:19;;;;;;;;;;;;;;;;;;4988006;28;20069;-78
2023/07/21 05:06:47;;;;;;;8.93;4.35;;;;;;;;;;4972716;28;20008;-78
2023/07/21 05:09:14;;;;;;;9.82;4.60;;;;;;;;;;4970260;28;20042;-79
2023/07/21 05:11:40;;;;;;;6.82;3.80;;;;;;;;;;4962243;28;20050;-79
2023/07/21 05:14:06;;;;;;;;;;;;;;;;;;4984562;28;20593;-78
2023/07/21 05:16:35;;;;;;;8.25;3.85;;;;;;;;;;4983242;28;19967;-78
2023/07/21 05:19:01;;;;;;;9.60;4.20;;;;;;;;;;4987252;28;20488;-78
2023/07/21 05:21:27;;;;;;;14.95;4.15;;;;;;;;;;4980580;28;20411;-78
2023/07/21 05:23:54;;;;;;;12.38;4.50;;;;;;;;;;4985540;28;20050;-78
2023/07/21 05:26:21;;;;;;;6.85;4.10;;;;;;;;;;5001146;28;20057;-78
2023/07/21 05:28:49;;;;;;;8.23;4.07;;;;;;;;;;5007186;28;20062;-78
2023/07/21 05:31:16;;;;;;;9.13;3.97;;;;;;;;;;4988180;28;20446;-79
2023/07/21 05:33:42;;;;;;;9.43;4.10;;;;;;;;;;4987696;28;20050;-79
2023/07/21 05:36:09;;;;;;;13.75;4.32;;;;;;;;;;4962480;28;20055;-78
2023/07/21 05:38:35;;;;;;;7.40;3.85;;;;;;;;;;4980583;28;20074;-79
2023/07/21 05:41:02;;;;;;;7.55;4.40;;;;;;;;;;4968565;28;20403;-78
2023/07/21 05:43:28;;;;;;;10.93;4.30;;;;;;;;;;4983851;28;20047;-78
2023/07/21 05:45:54;;;;;;;;;;;;;;;;;;4987737;28;20567;-79
2023/07/21 05:48:20;;;;;;;9.65;4.00;;;;;;;;;;4968656;28;20036;-79
2023/07/21 05:50:46;;;;;;;7.18;3.95;;;;;;;;;;4969031;28;20471;-79
2023/07/21 05:53:12;;;;;;;;;;;;;;;;;;4968788;28;20137;-78
2023/07/21 05:55:42;;;;;;;7.47;3.97;;;;;;;;;;4984930;28;20362;-79
2023/07/21 05:58:08;;;;;;;7.88;3.80;;;;;;;;;;4972995;28;20038;-79
2023/07/21 06:00:39;;;;;;;9.93;3.70;;;;;;;;;;4983536;28;20070;-79
2023/07/21 06:03:05;;;;;;;7.03;3.63;;;;;;;;;;5011446;28;20497;-79
2023/07/21 06:05:32;;;;;;;;;;;;;;;;;;4984995;28;20046;-79
2023/07/21 06:07:58;;;;;;;10.00;3.95;;;;;;;;;;4968567;28;19975;-79
2023/07/21 06:10:24;;;;;;;8.60;3.88;;;;;;;;;;5000493;28;20047;-79
2023/07/21 06:12:50;;;;;;;;;;;;;;;;;;5000484;28;20058;-79
2023/07/21 06:15:16;;;;;;;9.45;3.28;;;;;;;;;;4967435;28;19933;-79
2023/07/21 06:17:42;;;;;;;;;;;;;;;;;;5000388;28;20055;-79
2023/07/21 06:20:11;;;;;;;9.02;3.13;;;;;;;;;;4967550;28;19929;-78
2023/07/21 06:22:37;;;;;;;5.60;3.35;;;;;;;;;;4967923;28;20055;-79
2023/07/21 06:25:04;;;;;;;8.02;2.90;;;;;;;;;;5000647;28;20042;-79
2023/07/21 06:27:30;;;;;;;6.57;3.03;;;;;;;;;;4986147;28;20038;-79
2023/07/21 06:29:56;;;;;;;;;;;;;;;;;;4976396;28;20055;-79
2023/07/21 06:32:23;;;;;;;6.18;2.42;;;;;;;;;;4967610;28;19928;-79
2023/07/21 06:34:49;;;;;;;6.50;2.47;;;;;;;;;;4956283;28;20046;-79
2023/07/21 06:37:15;;;;;;;;;;;;;;;;;;4987458;28;20058;-78
2023/07/21 06:39:41;;;;;;;6.78;2.10;;;;;;;;;;4987555;28;19995;-79
2023/07/21 06:42:10;;;;;;;;;;;;;;;;;;4968899;28;20067;-78
2023/07/21 06:44:36;;;;;;;3.58;1.73;;;;;;;;;;4967895;28;19936;-79
2023/07/21 06:47:02;;;;;;;;;;;;;;;;;;4981864;28;20058;-78
2023/07/21 06:49:28;;;;;;;4.85;1.60;;;;;;;;;;4987557;28;19951;-79
2023/07/21 06:51:54;;;;;;;;;;;;;;;;;;4990727;28;20408;-71
2023/07/21 06:54:20;;;;;;;7.30;1.80;;;;;;;;;;4994182;28;19932;-74
2023/07/21 06:56:48;;;;;;;;;;;;;;;;;;4991264;28;20054;-70
2023/07/21 06:59:14;;;;;;;6.40;1.63;;;;;;;;;;4990817;28;19973;-70
2023/07/21 07:01:41;;;;;;;;;;;;;;;;;;4974976;28;20053;-65
2023/07/21 07:04:07;;;;;;;3.97;1.90;;;;;;;;;;4991013;28;19936;-78
2023/07/21 07:06:33;;;;;;;;;;;;;;;;;;4990804;28;20054;-77
2023/07/21 07:08:59;;;;;;;5.00;1.80;;;;;;;;;;4974268;28;19970;-80
2023/07/21 07:11:25;;;;;;;;;;;;;;;;;;5006600;28;20070;-77
2023/07/21 07:13:51;;;;;;;3.38;1.83;;;;;;;;;;4979809;28;19926;-77
2023/07/21 07:16:17;;;;;;;;;;;;;;;;;;4963907;28;20061;-77
2023/07/21 07:18:43;;;;;;;5.53;1.95;;;;;;;;;;4988329;28;19926;-77
2023/07/21 07:21:09;;;;;;;;;;;;;;;;;;4981803;28;20047;-77
2023/07/21 07:23:35;;;;;;;5.60;1.90;;;;;;;;;;4975737;28;19949;-77
2023/07/21 07:26:01;;;;;;;;;;;;;;;;;;4982231;28;20129;-77
2023/07/21 07:28:28;;;;;;;3.97;1.80;;;;;;;;;;4986987;28;19994;-78
2023/07/21 07:30:53;;;;;;;;;;;;;;;;;;5008377;28;20054;-78
2023/07/21 07:33:19;;;;;;;10.02;2.42;;;;;;;;;;4994468;28;19922;-78
2023/07/21 07:35:45;;;;;;;;;;;;;;;;;;4990772;28;20068;-78
2023/07/21 07:38:11;;;;;;;5.30;1.70;;;;;;;;;;4976243;28;19922;-78
2023/07/21 07:40:37;;;;;;;;;;;;;;;;;;4970917;28;20046;-78
2023/07/21 07:43:03;;;;;;;4.00;2.22;;;;;;;;;;4970630;28;19936;-78
2023/07/21 07:45:29;;;;;;;;;;;;;;;;;;4978993;28;20054;-78
2023/07/21 07:47:56;;;;;;;2.88;1.80;;;;;;;;;;4993012;28;20358;-78
2023/07/21 07:50:22;;;;;;;4.80;1.80;;;;;;;;;;4989626;28;20133;-78
2023/07/21 07:52:49;;;;;;;;;;;;;;;;;;4985727;28;20103;-78
2023/07/21 07:55:15;;;;;;;4.55;1.50;;;;;;;;;;4981224;28;19922;-77
2023/07/21 07:57:41;;;;;;;3.00;1.45;;;;;;;;;;4969758;28;20054;-70
2023/07/21 08:00:08;;;;;;;;;;;;;;;;;;4987689;28;20061;-70
2023/07/21 08:02:34;;;;;;;1.92;1.45;;;;;;;;;;4990117;28;20012;-72
2023/07/21 08:05:00;;;;;;;4.18;1.80;;;;;;;;;;4990042;28;20047;-70
2023/07/21 08:07:26;;;;;;;;;;;;;;;;;;4982800;28;20051;-71
2023/07/21 08:09:52;;;;;;;4.63;1.70;;;;;;;;;;4979869;28;19922;-74
2023/07/21 08:12:18;;;;;;;;;;;;;;;;;;4989885;28;20046;-75
2023/07/21 08:14:44;;;;;;;3.58;1.70;;;;;;;;;;4983337;28;20291;-74
2023/07/21 08:17:10;;;;;;;;;;;;;;;;;;5010855;28;20053;-74
2023/07/21 08:19:36;;;;;;;3.65;1.48;;;;;;;;;;4968144;28;19921;-75
2023/07/21 08:22:03;;;;;;;;;;;;;;;;;;4980584;28;20046;-75
2023/07/21 08:24:30;;;;;;;3.45;1.17;;;;;;;;;;4976322;28;20020;-75
2023/07/21 08:26:58;;;;;;;;;;;;;;;;;;4970203;28;20424;-74
2023/07/21 08:29:24;;;;;;;3.38;1.50;;;;;;;;;;4969054;28;19922;-75
2023/07/21 08:31:50;;;;;;;;;;;;;;;;;;4977885;28;20065;-74
2023/07/21 08:34:16;;;;;;;2.17;1.42;;;;;;;;;;4970243;28;20310;-72
2023/07/21 08:36:42;;;;;;;;;;;;;;;;;;4973174;28;20061;-72
2023/07/21 08:39:08;;;;;;;3.83;1.30;;;;;;;;;;4994856;28;19922;-72
2023/07/21 08:41:34;;;;;;;;;;;;;;;;;;4970029;28;20047;-71
2023/07/21 08:44:00;;;;;;;1.55;1.20;;;;;;;;;;5022263;28;19929;-71
2023/07/21 08:46:27;;;;;;;2.80;1.55;;;;;;;;;;5009097;28;20144;-72
2023/07/21 08:48:54;;;;;;;2.33;1.20;;;;;;;;;;5008644;28;20544;-70
2023/07/21 08:51:20;;;;;;;3.08;1.23;;;;;;;;;;5006518;28;20046;-72
2023/07/21 08:53:46;;;;;;;;;;;;;;;;;;4991384;28;20046;-72
2023/07/21 08:56:12;;;;;;;2.22;1.00;;;;;;;;;;4998400;28;20016;-84
2023/07/21 08:58:38;;;;;;;;;;;;;;;;;;4991022;28;20111;-80
2023/07/21 09:01:05;;;;;;;2.58;1.13;;;;;;;;;;5008163;28;19925;-78
2023/07/21 09:03:31;;;;;;;2.20;1.20;;;;;;;;;;4974871;28;20543;-77
2023/07/21 09:05:58;;;;;;;2.28;1.13;;;;;;;;;;4992082;28;20191;-84
2023/07/21 09:08:27;;;;;;;1.35;0.98;;;;;;;;;;4973801;28;20057;-80
2023/07/21 09:10:57;;;;;;;1.75;1.35;;;;;;;;;;4974972;28;20144;-83
2023/07/21 09:13:23;;;;;;;1.42;1.10;;;;;;;;;;4990769;28;20046;-81
2023/07/21 09:15:49;;;;;;;;;;;;;;;;;;4991835;28;20046;-83
2023/07/21 09:18:15;;;;;;;3.40;1.25;;;;;;;;;;5006935;28;19929;-84
2023/07/21 09:20:41;;;;;;;;;;;;;;;;;;4964892;28;20065;-84
2023/07/21 09:23:08;;;;;;;2.20;1.50;;;;;;;;;;5005671;28;19925;-84
2023/07/21 09:25:34;;;;;;;3.65;1.45;;;;;;;;;;4991323;28;20052;-84
2023/07/21 09:28:03;;;;;;;2.05;1.30;;;;;;;;;;4991048;28;20077;-84
2023/07/21 09:30:29;;;;;;;1.10;1.00;;;;;;;;;;4991125;28;20077;-84
2023/07/21 09:32:55;;;;;;;;;;;;;;;;;;4973968;28;20034;-84
2023/07/21 09:35:22;;;;;;;2.33;1.13;;;;;;;;;;5005426;28;20003;-83
2023/07/21 09:37:51;;;;;;;1.30;1.00;;;;;;;;;;4986291;28;20050;-84
2023/07/21 09:40:26;;;;;;;2.85;1.05;;;;;;;;;;4978454;28;20125;-84
2023/07/21 09:42:52;;;;;;;1.27;1.00;;;;;;;;;;4973948;28;20161;-84
2023/07/21 09:45:18;;;;;;;;;;;;;;;;;;4990875;28;20048;-84
2023/07/21 09:47:45;;;;;;;2.10;1.30;;;;;;;;;;5009997;28;19925;-83
2023/07/21 09:50:11;;;;;;;2.53;1.25;;;;;;;;;;4990645;28;20099;-82
2023/07/21 09:52:38;;;;;;;;;;;;;;;;;;5007212;28;20049;-84
2023/07/21 09:55:04;;;;;;;;;;;;;;;;;;4991901;28;19964;-84
2023/07/21 09:57:32;;;;;;;1.38;1.17;;;;;;;;;;5006650;28;19957;-81
2023/07/21 10:00:07;;;;;;;1.35;1.10;;;;;;;;;;4974796;28;20532;-84
2023/07/21 10:02:35;;;;;;;3.37;1.40;;;;;;;;;;4986974;28;20038;-84
2023/07/21 10:05:01;;;;;;;3.53;1.58;;;;;;;;;;4990399;28;20459;-85
2023/07/21 10:07:28;;;;;;;2.45;1.20;;;;;;;;;;4990796;28;20414;-85
2023/07/21 10:09:54;;;;;;;2.05;1.50;;;;;;;;;;4995899;28;20053;-85
2023/07/21 10:12:20;;;;;;;2.75;1.40;;;;;;;;;;4977146;28;20110;-84
2023/07/21 10:14:46;;;;;;;2.55;1.42;;;;;;;;;;4986936;28;20211;-84
2023/07/21 10:17:12;;;;;;;;;;;;;;;;;;4974925;28;20046;-83
2023/07/21 10:19:40;;;;;;;4.88;2.60;;;;;;;;;;5021232;28;19921;-85
2023/07/21 10:22:09;;;;;;;3.20;1.58;;;;;;;;;;4988193;28;20056;-85
2023/07/21 10:24:42;;;;;;;1.52;1.33;;;;;;;;;;4990241;28;20045;-85
2023/07/21 10:27:08;;;;;;;2.65;1.45;;;;;;;;;;4974291;28;20557;-84
2023/07/21 10:29:34;;;;;;;;;;;;;;;;;;4974416;28;20081;-82
2023/07/21 10:32:03;;;;;;;3.60;1.67;;;;;;;;;;5002150;28;20381;-84
2023/07/21 10:34:36;;;;;;;2.80;1.77;;;;;;;;;;4968049;28;20491;-84
2023/07/21 10:37:04;;;;;;;3.33;1.67;;;;;;;;;;4977588;28;20767;-85
2023/07/21 10:39:32;;;;;;;3.92;1.60;;;;;;;;;;4983331;28;20130;-83
2023/07/21 10:42:05;;;;;;;5.07;1.70;;;;;;;;;;4970919;28;20149;-84
2023/07/21 10:44:50;;;;;;;4.05;1.40;;;;;;;;;;4990550;28;20054;-85
2023/07/21 10:47:18;;;;;;;2.90;1.30;;;;;;;;;;4990663;28;20042;-83
2023/07/21 10:49:45;;;;;;;2.88;1.80;;;;;;;;;;4989439;28;20528;-85
2023/07/21 10:52:11;;;;;;;3.75;2.00;;;;;;;;;;4974372;28;20099;-85
2023/07/21 10:54:37;;;;;;;3.15;1.58;;;;;;;;;;4973927;28;20106;-82
2023/07/21 10:57:03;;;;;;;3.70;1.60;;;;;;;;;;4974069;28;20092;-84
2023/07/21 10:59:33;;;;;;;3.10;1.58;;;;;;;;;;4990318;28;20050;-85
2023/07/21 11:02:00;;;;;;;3.08;1.50;;;;;;;;;;4967586;28;20043;-86
2023/07/21 11:04:26;;;;;;;3.30;1.52;;;;;;;;;;5014703;28;20064;-77
2023/07/21 11:06:53;;;;;;;2.08;1.48;;;;;;;;;;4964889;28;20137;-72
2023/07/21 11:09:21;;;;;;;5.10;1.67;;;;;;;;;;4987288;28;20042;-71
2023/07/21 11:11:54;;;;;;;2.22;1.60;;;;;;;;;;4970176;28;20061;-75
2023/07/21 11:14:23;;;;;;;2.20;1.30;;;;;;;;;;4987715;28;20042;-75
2023/07/21 11:16:56;;;;;;;1.40;1.25;;;;;;;;;;4970596;28;20058;-76
2023/07/21 11:19:24;;;;;;;2.70;1.40;;;;;;;;;;5002569;28;20046;-76
2023/07/21 11:21:50;;;;;;;3.20;1.40;;;;;;;;;;5002658;28;20559;-76
2023/07/21 11:24:20;;;;;;;2.47;1.35;;;;;;;;;;4988578;28;20050;-87
2023/07/21 11:26:47;;;;;;;2.28;1.63;;;;;;;;;;5002954;28;20135;-82
2023/07/21 11:29:14;;;;;;;1.70;1.40;;;;;;;;;;4971829;28;20062;-80
2023/07/21 11:31:41;;;;;;;5.65;1.90;;;;;;;;;;4978227;28;20137;-79
2023/07/21 11:34:20;;;;;;;4.68;1.63;;;;;;;;;;5002490;28;20058;-71
2023/07/21 11:36:49;;;;;;;3.13;1.50;;;;;;;;;;4992833;28;20050;-75
2023/07/21 11:39:18;;;;;;;2.47;1.40;;;;;;;;;;4985809;28;20057;-72
2023/07/21 11:41:48;;;;;;;2.85;1.63;;;;;;;;;;4990473;28;20054;-69
2023/07/21 11:44:20;;;;;;;2.90;1.40;;;;;;;;;;4990632;28;20498;-70
2023/07/21 11:46:57;;;;;;;3.13;1.90;;;;;;;;;;4990860;28;20498;-73
2023/07/21 11:49:25;;;;;;;5.20;1.60;;;;;;;;;;4980241;28;20055;-72
2023/07/21 11:51:51;;;;;;;2.55;1.58;;;;;;;;;;4990181;28;20807;-72
2023/07/21 11:54:25;;;;;;;4.15;1.77;;;;;;;;;;5006536;28;20061;-74
2023/07/21 11:56:52;;;;;;;3.55;2.13;;;;;;;;;;4991982;28;20046;-72
2023/07/21 11:59:18;;;;;;;7.50;2.00;;;;;;;;;;4990701;28;20046;-72
2023/07/21 12:01:45;;;;;;;4.93;2.00;;;;;;;;;;4990406;28;20050;-74
2023/07/21 12:04:11;;;;;;;3.70;2.03;;;;;;;;;;4997656;28;20492;-74
2023/07/21 12:06:37;;;;;;;2.83;1.80;;;;;;;;;;4976963;28;20403;-74
2023/07/21 12:09:05;;;;;;;4.35;2.00;;;;;;;;;;4992549;28;20288;-73
2023/07/21 12:11:32;;;;;;;3.03;1.80;;;;;;;;;;4992948;28;20092;-77
2023/07/21 12:13:58;;;;;;;2.80;1.80;;;;;;;;;;4991455;28;20054;-73
2023/07/21 12:16:24;;;;;;;3.83;1.70;;;;;;;;;;4975407;28;20080;-71
2023/07/21 12:18:50;;;;;;;3.88;1.90;;;;;;;;;;4989738;28;20057;-73
2023/07/21 12:21:17;;;;;;;5.05;2.10;;;;;;;;;;5008567;28;20046;-72
2023/07/21 12:23:46;;;;;;;5.90;2.20;;;;;;;;;;4992795;28;20056;-68
2023/07/21 12:26:13;;;;;;;3.85;2.00;;;;;;;;;;5010323;28;20057;-72
2023/07/21 12:28:41;;;;;;;4.15;1.98;;;;;;;;;;5009310;28;20065;-72
2023/07/21 12:31:07;;;;;;;3.80;1.98;;;;;;;;;;4983521;28;20058;-68
2023/07/21 12:33:35;;;;;;;3.55;1.52;;;;;;;;;;4988054;28;20069;-71
2023/07/21 12:36:01;;;;;;;3.83;1.80;;;;;;;;;;4980719;28;20111;-73
2023/07/21 12:38:27;;;;;;;3.13;1.92;;;;;;;;;;4988313;28;20053;-79
2023/07/21 12:40:53;;;;;;;2.25;1.63;;;;;;;;;;4958832;28;20057;-78
2023/07/21 12:43:19;;;;;;;1.73;1.50;;;;;;;;;;4939256;28;20050;-76
2023/07/21 12:45:46;;;;;;;3.47;1.70;;;;;;;;;;4988884;28;20050;-78
2023/07/21 12:48:12;;;;;;;6.38;1.50;;;;;;;;;;4971000;28;20399;-78
2023/07/21 12:50:38;;;;;;;2.60;1.45;;;;;;;;;;4972581;28;20046;-78
2023/07/21 12:53:04;;;;;;;2.80;1.42;;;;;;;;;;4988558;28;20046;-78
2023/07/21 12:55:31;;;;;;;4.35;1.70;;;;;;;;;;4985862;28;20053;-77
2023/07/21 12:57:57;;;;;;;2.25;1.30;;;;;;;;;;4984565;28;20053;-78
2023/07/21 13:00:23;;;;;;;1.98;1.27;;;;;;;;;;5002126;28;20107;-77
2023/07/21 13:02:49;;;;;;;1.98;1.00;;;;;;;;;;4984698;28;20039;-77
2023/07/21 13:05:15;;;;;;;3.58;1.30;;;;;;;;;;5017247;28;20080;-77
2023/07/21 13:07:41;;;;;;;1.95;0.95;;;;;;;;;;4971141;28;20404;-78
2023/07/21 13:10:08;;;;;;;3.33;1.23;;;;;;;;;;4969078;28;20050;-78
2023/07/21 13:12:35;;;;;;;2.58;1.33;;;;;;;;;;4968965;28;20063;-78
2023/07/21 13:15:01;;;;;;;1.45;1.20;;;;;;;;;;4956031;28;20046;-78
2023/07/21 13:17:27;;;;;;;2.05;1.30;;;;;;;;;;4964008;28;20138;-78
2023/07/21 13:19:53;;;;;;;2.60;1.30;;;;;;;;;;4984062;28;20549;-81
2023/07/21 13:22:19;;;;;;;2.95;1.25;;;;;;;;;;4985163;28;20043;-78
2023/07/21 13:24:46;;;;;;;2.10;1.40;;;;;;;;;;4969382;28;20103;-78
2023/07/21 13:27:12;;;;;;;1.58;1.30;;;;;;;;;;4984746;28;20051;-78
2023/07/21 13:29:39;;;;;;;2.35;1.10;;;;;;;;;;4988258;28;20434;-78
2023/07/21 13:32:05;;;;;;;2.40;1.08;;;;;;;;;;4960794;28;20421;-77
2023/07/21 13:34:32;;;;;;;1.35;1.10;;;;;;;;;;4968405;28;20051;-78
2023/07/21 13:36:58;;;;;;;3.00;1.10;;;;;;;;;;5000827;28;20400;-78
2023/07/21 13:39:24;;;;;;;1.30;1.00;;;;;;;;;;4953036;28;20068;-78
2023/07/21 13:41:52;;;;;;;3.08;1.20;;;;;;;;;;4975800;28;20453;-78
2023/07/21 13:44:18;;;;;;;2.15;1.23;;;;;;;;;;4974701;28;20475;-77
2023/07/21 13:46:44;;;;;;;2.90;1.42;;;;;;;;;;4975579;28;20046;-78
2023/07/21 13:49:11;;;;;;;4.45;1.83;;;;;;;;;;4974084;28;20449;-78
2023/07/21 13:51:38;;;;;;;7.65;2.45;;;;;;;;;;4968515;28;20057;-78
2023/07/21 13:54:05;;;;;;;4.15;2.05;;;;;;;;;;4974913;28;20061;-78
2023/07/21 13:56:32;;;;;;;5.20;2.42;;;;;;;;;;4959780;28;20103;-77
2023/07/21 13:58:59;;;;;;;5.32;2.00;;;;;;;;;;4986488;28;20057;-81
2023/07/21 14:01:26;;;;;;;3.60;2.28;;;;;;;;;;4972528;28;20076;-77
2023/07/21 14:03:52;;;;;;;5.95;2.25;;;;;;;;;;4971018;28;20042;-78
2023/07/21 14:06:18;;;;;;;6.50;2.17;;;;;;;;;;4971528;28;20169;-78
2023/07/21 14:08:45;;;;;;;4.78;2.55;;;;;;;;;;4958268;28;20471;-78
2023/07/21 14:11:11;;;;;;;4.75;2.10;;;;;;;;;;4989698;28;20042;-77
2023/07/21 14:13:37;;;;;;;5.60;2.15;;;;;;;;;;4974385;28;20057;-77
2023/07/21 14:16:04;;;;;;;7.20;2.50;;;;;;;;;;4988818;28;20058;-77
2023/07/21 14:18:33;;;;;;;3.92;2.17;;;;;;;;;;4960770;28;20058;-78
2023/07/21 14:20:59;;;;;;;3.05;2.00;;;;;;;;;;5004083;28;20107;-82
2023/07/21 14:23:25;;;;;;;4.25;1.95;;;;;;;;;;5008822;28;20057;-81
2023/07/21 14:25:51;;;;;;;;;;;;;;;;;;4976370;28;20495;-82
2023/07/21 14:28:17;;;;;;;3.50;1.85;;;;;;;;;;4992586;28;19929;-81
2023/07/21 14:30:43;;;;;;;;;;;;;;;;;;5007211;28;20045;-81
2023/07/21 14:33:09;;;;;;;3.15;1.80;;;;;;;;;;5013091;28;20409;-82
2023/07/21 14:35:35;;;;;;;1.90;1.58;;;;;;;;;;4990534;28;20049;-80
2023/07/21 14:38:02;;;;;;;2.58;1.55;;;;;;;;;;4967913;28;20108;-84
2023/07/21 14:40:28;;;;;;;4.28;2.00;;;;;;;;;;4983125;28;20046;-82
2023/07/21 14:42:54;;;;;;;;;;;;;;;;;;4982889;28;20129;-82
2023/07/21 14:45:20;;;;;;;4.93;2.10;;;;;;;;;;4967150;28;20482;-79
2023/07/21 14:47:46;;;;;;;4.07;2.22;;;;;;;;;;4956353;28;20085;-81
2023/07/21 14:50:12;;;;;;;;;;;;;;;;;;4974844;28;20038;-81
2023/07/21 14:52:38;;;;;;;4.18;2.30;;;;;;;;;;4999100;28;19968;-80
2023/07/21 14:55:06;;;;;;;;;;;;;;;;;;4984282;28;20123;-83
2023/07/21 14:57:32;;;;;;;4.82;2.55;;;;;;;;;;4983481;28;20310;-81
2023/07/21 14:59:58;;;;;;;;;;;;;;;;;;4985030;28;20065;-81